LIRI Informações do Aeroporto

Informações da Pista
Pista 05 Comprimento 4577 ft Largura 148 ft
Elevação 82 ft Limite 0 ft Heading 48
Pista 23 Comprimento 4577 ft Largura 148 ft
Elevação 119 ft Limite 312 ft Heading 228
Frequências do Aeroporto
Tipo AFIS Nome SALERNO IN Frequência 119.175 MHZ
Navaids do Aeroporto
Informações meteorológicas do aeroporto e NOTAM
ADDS - METARS form results

(1432 UTC 21 April 2019)
Data provider http://aviationweather.gov/metar/data/
 
METAR text: LIRI 211350Z 30005KT 9999 OVC060 20/07 Q1016
Conditions at: LIRI (PONTECAGNANO (AF, IT) observed 1350 UTC 21 April 2019
Temperature: 20.0°C (68°F)
Dewpoint: 7.0°C (45°F) [RH = 43%]
Pressure (altimeter): 30.00 inches Hg (1016.0 mb)
Winds: from the WNW (300 degrees) at 6 MPH (5 knots; 2.6 m/s)
Visibility: 6 or more miles (10+ km)
Ceiling: 6000 feet AGL
Clouds: overcast cloud deck at 6000 feet AGL
Weather: no significant weather observed at this time